sensor_id;sensor_type;location;lat;lon;timestamp;pressure;altitude;pressure_sealevel;temperature;humidity
68871;BME280;55906;52.278;6.808;2023-04-09T00:00:42;102525.84;;;11.30;71.19
68871;BME280;55906;52.278;6.808;2023-04-09T00:03:09;102531.84;;;11.28;71.44
68871;BME280;55906;52.278;6.808;2023-04-09T00:05:38;102519.50;;;11.27;71.33
68871;BME280;55906;52.278;6.808;2023-04-09T00:08:05;102527.50;;;11.28;71.88
68871;BME280;55906;52.278;6.808;2023-04-09T00:10:33;102529.28;;;11.29;71.49
68871;BME280;55906;52.278;6.808;2023-04-09T00:12:59;102529.28;;;11.29;71.62
68871;BME280;55906;52.278;6.808;2023-04-09T00:15:26;102528.00;;;11.21;71.96
68871;BME280;55906;52.278;6.808;2023-04-09T00:17:53;102528.09;;;11.22;72.19
68871;BME280;55906;52.278;6.808;2023-04-09T00:20:20;102529.91;;;11.23;71.97
68871;BME280;55906;52.278;6.808;2023-04-09T00:22:47;102531.63;;;11.23;71.52
68871;BME280;55906;52.278;6.808;2023-04-09T00:25:14;102524.47;;;11.20;71.47
68871;BME280;55906;52.278;6.808;2023-04-09T00:27:42;102525.38;;;11.21;72.06
68871;BME280;55906;52.278;6.808;2023-04-09T00:30:09;102525.97;;;11.15;72.29
68871;BME280;55906;52.278;6.808;2023-04-09T00:32:36;102512.72;;;11.14;72.08
68871;BME280;55906;52.278;6.808;2023-04-09T00:35:03;102522.44;;;11.15;71.51
68871;BME280;55906;52.278;6.808;2023-04-09T00:37:30;102518.97;;;11.16;71.78
68871;BME280;55906;52.278;6.808;2023-04-09T00:39:56;102518.44;;;11.05;71.75
68871;BME280;55906;52.278;6.808;2023-04-09T00:42:23;102520.25;;;11.06;72.18
68871;BME280;55906;52.278;6.808;2023-04-09T00:44:51;102525.66;;;11.09;72.46
68871;BME280;55906;52.278;6.808;2023-04-09T00:47:18;102513.16;;;11.05;71.72
68871;BME280;55906;52.278;6.808;2023-04-09T00:49:44;102518.59;;;11.08;71.96
68871;BME280;55906;52.278;6.808;2023-04-09T00:52:13;102507.91;;;11.05;71.88
68871;BME280;55906;52.278;6.808;2023-04-09T00:54:40;102513.09;;;11.04;72.35
68871;BME280;55906;52.278;6.808;2023-04-09T00:57:07;102515.72;;;11.04;72.36
68871;BME280;55906;52.278;6.808;2023-04-09T00:59:35;102506.84;;;11.02;72.17
68871;BME280;55906;52.278;6.808;2023-04-09T01:02:03;102507.69;;;11.01;72.68
68871;BME280;55906;52.278;6.808;2023-04-09T01:04:30;102495.25;;;10.98;72.55
68871;BME280;55906;52.278;6.808;2023-04-09T01:07:03;102510.97;;;10.97;72.96
68871;BME280;55906;52.278;6.808;2023-04-09T01:09:34;102502.34;;;10.99;72.39
68871;BME280;55906;52.278;6.808;2023-04-09T01:12:09;102499.78;;;11.01;72.69
68871;BME280;55906;52.278;6.808;2023-04-09T01:14:43;102497.16;;;11.01;72.47
68871;BME280;55906;52.278;6.808;2023-04-09T01:17:16;102492.84;;;11.03;72.30
68871;BME280;55906;52.278;6.808;2023-04-09T01:19:50;102503.47;;;11.04;71.94
68871;BME280;55906;52.278;6.808;2023-04-09T01:22:31;102496.41;;;11.03;72.71
68871;BME280;55906;52.278;6.808;2023-04-09T01:25:10;102493.84;;;11.05;72.15
68871;BME280;55906;52.278;6.808;2023-04-09T01:27:45;102495.50;;;11.03;71.72
68871;BME280;55906;52.278;6.808;2023-04-09T01:30:14;102494.66;;;11.04;71.77
68871;BME280;55906;52.278;6.808;2023-04-09T01:32:43;102490.91;;;10.99;72.02
68871;BME280;55906;52.278;6.808;2023-04-09T01:35:10;102497.06;;;10.99;71.96
68871;BME280;55906;52.278;6.808;2023-04-09T01:37:38;102496.00;;;10.96;72.41
68871;BME280;55906;52.278;6.808;2023-04-09T01:40:06;102492.25;;;10.90;71.74
68871;BME280;55906;52.278;6.808;2023-04-09T01:42:34;102495.03;;;10.94;71.60
68871;BME280;55906;52.278;6.808;2023-04-09T01:45:02;102488.78;;;10.92;71.99
68871;BME280;55906;52.278;6.808;2023-04-09T01:47:31;102490.59;;;10.93;71.93
68871;BME280;55906;52.278;6.808;2023-04-09T01:49:58;102487.13;;;10.94;71.97
68871;BME280;55906;52.278;6.808;2023-04-09T01:52:26;102485.31;;;10.93;71.84
68871;BME280;55906;52.278;6.808;2023-04-09T01:54:52;102484.50;;;10.94;71.57
68871;BME280;55906;52.278;6.808;2023-04-09T01:57:19;102481.72;;;10.90;72.12
68871;BME280;55906;52.278;6.808;2023-04-09T01:59:45;102479.06;;;10.90;72.19
68871;BME280;55906;52.278;6.808;2023-04-09T02:02:16;102493.28;;;10.94;71.86
68871;BME280;55906;52.278;6.808;2023-04-09T02:04:48;102482.75;;;10.94;71.78
68871;BME280;55906;52.278;6.808;2023-04-09T02:07:23;102482.59;;;10.91;72.07
68871;BME280;55906;52.278;6.808;2023-04-09T02:09:53;102486.97;;;10.90;72.14
68871;BME280;55906;52.278;6.808;2023-04-09T02:12:20;102482.47;;;10.88;72.25
68871;BME280;55906;52.278;6.808;2023-04-09T02:14:50;102486.66;;;10.84;72.11
68871;BME280;55906;52.278;6.808;2023-04-09T02:17:17;102479.59;;;10.83;71.99
68871;BME280;55906;52.278;6.808;2023-04-09T02:19:46;102485.75;;;10.84;71.64
68871;BME280;55906;52.278;6.808;2023-04-09T02:22:14;102481.09;;;10.78;72.18
68871;BME280;55906;52.278;6.808;2023-04-09T02:24:41;102474.91;;;10.78;71.89
68871;BME280;55906;52.278;6.808;2023-04-09T02:27:08;102479.28;;;10.77;72.12
68871;BME280;55906;52.278;6.808;2023-04-09T02:29:34;102479.28;;;10.77;71.66
68871;BME280;55906;52.278;6.808;2023-04-09T02:32:01;102475.81;;;10.78;71.80
68871;BME280;55906;52.278;6.808;2023-04-09T02:34:27;102471.38;;;10.77;71.96
68871;BME280;55906;52.278;6.808;2023-04-09T02:36:55;102469.72;;;10.79;71.68
68871;BME280;55906;52.278;6.808;2023-04-09T02:39:22;102463.63;;;10.80;71.49
68871;BME280;55906;52.278;6.808;2023-04-09T02:41:49;102460.94;;;10.79;71.68
68871;BME280;55906;52.278;6.808;2023-04-09T02:44:15;102460.94;;;10.79;71.07
68871;BME280;55906;52.278;6.808;2023-04-09T02:46:43;102460.03;;;10.78;71.51
68871;BME280;55906;52.278;6.808;2023-04-09T02:49:10;102465.28;;;10.78;71.06
68871;BME280;55906;52.278;6.808;2023-04-09T02:51:36;102456.41;;;10.76;70.89
68871;BME280;55906;52.278;6.808;2023-04-09T02:54:04;102463.41;;;10.76;71.17
68871;BME280;55906;52.278;6.808;2023-04-09T02:56:31;102456.41;;;10.76;70.91
68871;BME280;55906;52.278;6.808;2023-04-09T02:58:57;102452.97;;;10.77;71.16
68871;BME280;55906;52.278;6.808;2023-04-09T03:01:24;102447.69;;;10.77;70.94
68871;BME280;55906;52.278;6.808;2023-04-09T03:03:51;102450.31;;;10.77;70.97
68871;BME280;55906;52.278;6.808;2023-04-09T03:06:17;102451.97;;;10.75;70.73
68871;BME280;55906;52.278;6.808;2023-04-09T03:08:44;102452.66;;;10.71;71.37
68871;BME280;55906;52.278;6.808;2023-04-09T03:11:12;102449.88;;;10.68;71.28
68871;BME280;55906;52.278;6.808;2023-04-09T03:13:38;102445.34;;;10.66;70.82
68871;BME280;55906;52.278;6.808;2023-04-09T03:16:05;102450.38;;;10.61;70.99
68871;BME280;55906;52.278;6.808;2023-04-09T03:18:34;102451.88;;;10.56;71.66
68871;BME280;55906;52.278;6.808;2023-04-09T03:21:03;102447.34;;;10.53;71.21
68871;BME280;55906;52.278;6.808;2023-04-09T03:23:30;102451.31;;;10.45;71.32
68871;BME280;55906;52.278;6.808;2023-04-09T03:26:00;102435.84;;;10.35;71.35
68871;BME280;55906;52.278;6.808;2023-04-09T03:28:28;102448.59;;;10.27;71.70
68871;BME280;55906;52.278;6.808;2023-04-09T03:30:55;102442.13;;;10.21;72.09
68871;BME280;55906;52.278;6.808;2023-04-09T03:33:22;102441.84;;;10.16;72.16
68871;BME280;55906;52.278;6.808;2023-04-09T03:35:49;102438.88;;;10.10;72.27
68871;BME280;55906;52.278;6.808;2023-04-09T03:38:15;102445.78;;;10.08;72.47
68871;BME280;55906;52.278;6.808;2023-04-09T03:40:42;102440.59;;;10.10;72.47
68871;BME280;55906;52.278;6.808;2023-04-09T03:43:08;102445.03;;;10.11;72.32
68871;BME280;55906;52.278;6.808;2023-04-09T03:45:36;102441.50;;;10.10;72.47
68871;BME280;55906;52.278;6.808;2023-04-09T03:48:03;102445.63;;;10.05;71.97
68871;BME280;55906;52.278;6.808;2023-04-09T03:50:30;102446.38;;;10.03;72.45
68871;BME280;55906;52.278;6.808;2023-04-09T03:52:56;102445.06;;;9.94;72.74
68871;BME280;55906;52.278;6.808;2023-04-09T03:55:23;102450.88;;;9.89;72.17
68871;BME280;55906;52.278;6.808;2023-04-09T03:57:49;102447.03;;;9.82;72.37
68871;BME280;55906;52.278;6.808;2023-04-09T04:00:16;102452.84;;;9.77;72.20
68871;BME280;55906;52.278;6.808;2023-04-09T04:02:44;102449.81;;;9.69;72.38
68871;BME280;55906;52.278;6.808;2023-04-09T04:05:11;102453.66;;;9.59;72.53
68871;BME280;55906;52.278;6.808;2023-04-09T04:07:37;102454.13;;;9.52;72.64
68871;BME280;55906;52.278;6.808;2023-04-09T04:10:05;102451.97;;;9.45;72.87
68871;BME280;55906;52.278;6.808;2023-04-09T04:12:32;102450.56;;;9.36;73.17
68871;BME280;55906;52.278;6.808;2023-04-09T04:14:59;102449.41;;;9.30;73.24
68871;BME280;55906;52.278;6.808;2023-04-09T04:17:26;102449.06;;;9.24;73.58
68871;BME280;55906;52.278;6.808;2023-04-09T04:19:54;102448.78;;;9.20;73.81
68871;BME280;55906;52.278;6.808;2023-04-09T04:22:20;102451.16;;;9.15;73.79
68871;BME280;55906;52.278;6.808;2023-04-09T04:24:47;102453.41;;;9.09;73.78
68871;BME280;55906;52.278;6.808;2023-04-09T04:27:13;102450.41;;;9.03;74.21
68871;BME280;55906;52.278;6.808;2023-04-09T04:29:40;102457.84;;;8.95;74.18
68871;BME280;55906;52.278;6.808;2023-04-09T04:32:07;102453.06;;;8.88;74.42
68871;BME280;55906;52.278;6.808;2023-04-09T04:34:33;102450.00;;;8.81;74.68
68871;BME280;55906;52.278;6.808;2023-04-09T04:37:01;102453.16;;;8.75;74.85
68871;BME280;55906;52.278;6.808;2023-04-09T04:39:29;102455.44;;;8.69;75.13
68871;BME280;55906;52.278;6.808;2023-04-09T04:41:56;102447.84;;;8.59;75.09
68871;BME280;55906;52.278;6.808;2023-04-09T04:44:23;102458.88;;;8.53;75.21
68871;BME280;55906;52.278;6.808;2023-04-09T04:46:49;102451.53;;;8.48;75.49
68871;BME280;55906;52.278;6.808;2023-04-09T04:49:16;102454.78;;;8.44;75.71
68871;BME280;55906;52.278;6.808;2023-04-09T04:51:42;102458.84;;;8.39;75.80
68871;BME280;55906;52.278;6.808;2023-04-09T04:54:10;102450.81;;;8.36;75.74
68871;BME280;55906;52.278;6.808;2023-04-09T04:56:37;102462.69;;;8.30;75.84
68871;BME280;55906;52.278;6.808;2023-04-09T04:59:03;102460.88;;;8.29;76.12
68871;BME280;55906;52.278;6.808;2023-04-09T05:01:30;102457.91;;;8.23;76.02
68871;BME280;55906;52.278;6.808;2023-04-09T05:03:57;102457.63;;;8.19;75.47
68871;BME280;55906;52.278;6.808;2023-04-09T05:06:23;102452.00;;;8.13;75.60
68871;BME280;55906;52.278;6.808;2023-04-09T05:08:51;102455.53;;;8.13;76.12
68871;BME280;55906;52.278;6.808;2023-04-09T05:11:19;102460.59;;;8.10;76.45
68871;BME280;55906;52.278;6.808;2023-04-09T05:13:46;102461.22;;;8.06;76.67
68871;BME280;55906;52.278;6.808;2023-04-09T05:16:16;102452.34;;;8.04;76.65
68871;BME280;55906;52.278;6.808;2023-04-09T05:18:43;102460.00;;;8.01;76.95
68871;BME280;55906;52.278;6.808;2023-04-09T05:21:09;102459.13;;;8.00;76.44
68871;BME280;55906;52.278;6.808;2023-04-09T05:23:36;102457.31;;;7.99;76.50
68871;BME280;55906;52.278;6.808;2023-04-09T05:26:03;102458.22;;;8.00;76.81
68871;BME280;55906;52.278;6.808;2023-04-09T05:28:31;102466.16;;;8.01;76.82
68871;BME280;55906;52.278;6.808;2023-04-09T05:30:58;102458.31;;;8.01;76.46
68871;BME280;55906;52.278;6.808;2023-04-09T05:33:25;102463.63;;;8.03;76.29
68871;BME280;55906;52.278;6.808;2023-04-09T05:35:51;102467.25;;;8.05;76.65
68871;BME280;55906;52.278;6.808;2023-04-09T05:38:18;102464.72;;;8.07;76.70
68871;BME280;55906;52.278;6.808;2023-04-09T05:40:45;102456.16;;;8.09;76.47
68871;BME280;55906;52.278;6.808;2023-04-09T05:43:13;102450.09;;;8.10;76.91
68871;BME280;55906;52.278;6.808;2023-04-09T05:45:41;102456.44;;;8.14;76.76
68871;BME280;55906;52.278;6.808;2023-04-09T05:48:08;102460.16;;;8.17;76.66
68871;BME280;55906;52.278;6.808;2023-04-09T05:50:34;102453.28;;;8.19;75.83
68871;BME280;55906;52.278;6.808;2023-04-09T05:53:01;102461.34;;;8.22;76.98
68871;BME280;55906;52.278;6.808;2023-04-09T05:55:27;102458.09;;;8.26;77.13
68871;BME280;55906;52.278;6.808;2023-04-09T05:57:56;102453.75;;;8.27;77.14
68871;BME280;55906;52.278;6.808;2023-04-09T06:00:22;102462.78;;;8.32;76.35
68871;BME280;55906;52.278;6.808;2023-04-09T06:02:50;102456.06;;;8.36;76.13
68871;BME280;55906;52.278;6.808;2023-04-09T06:05:17;102457.22;;;8.41;76.16
68871;BME280;55906;52.278;6.808;2023-04-09T06:07:44;102453.16;;;8.46;76.57
68871;BME280;55906;52.278;6.808;2023-04-09T06:10:10;102456.06;;;8.50;76.43
68871;BME280;55906;52.278;6.808;2023-04-09T06:12:37;102453.63;;;8.53;76.63
68871;BME280;55906;52.278;6.808;2023-04-09T06:15:04;102459.22;;;8.59;76.23
68871;BME280;55906;52.278;6.808;2023-04-09T06:17:31;102467.56;;;8.67;76.23
68871;BME280;55906;52.278;6.808;2023-04-09T06:19:59;102465.47;;;8.76;75.60
68871;BME280;55906;52.278;6.808;2023-04-09T06:22:25;102460.50;;;8.81;75.24
68871;BME280;55906;52.278;6.808;2023-04-09T06:24:52;102460.69;;;8.84;75.79
68871;BME280;55906;52.278;6.808;2023-04-09T06:27:19;102460.13;;;8.89;76.15
68871;BME280;55906;52.278;6.808;2023-04-09T06:29:46;102456.22;;;8.97;75.25
68871;BME280;55906;52.278;6.808;2023-04-09T06:32:13;102461.09;;;9.06;74.81
68871;BME280;55906;52.278;6.808;2023-04-09T06:34:39;102459.75;;;9.13;74.52
68871;BME280;55906;52.278;6.808;2023-04-09T06:37:07;102466.44;;;9.22;74.26
68871;BME280;55906;52.278;6.808;2023-04-09T06:39:34;102467.00;;;9.17;74.85
68871;BME280;55906;52.278;6.808;2023-04-09T06:42:01;102479.19;;;9.31;74.28
68871;BME280;55906;52.278;6.808;2023-04-09T06:44:28;102464.69;;;9.38;73.66
68871;BME280;55906;52.278;6.808;2023-04-09T06:46:55;102479.59;;;9.53;73.85
68871;BME280;55906;52.278;6.808;2023-04-09T06:49:22;102476.38;;;9.59;73.35
68871;BME280;55906;52.278;6.808;2023-04-09T06:51:48;102474.84;;;9.62;73.24
68871;BME280;55906;52.278;6.808;2023-04-09T06:54:17;102473.69;;;9.74;72.90
68871;BME280;55906;52.278;6.808;2023-04-09T06:56:44;102483.91;;;9.84;72.66
68871;BME280;55906;52.278;6.808;2023-04-09T06:59:11;102477.41;;;9.93;72.52
68871;BME280;55906;52.278;6.808;2023-04-09T07:01:38;102475.94;;;9.99;72.51
68871;BME280;55906;52.278;6.808;2023-04-09T07:04:05;102475.63;;;10.09;71.74
68871;BME280;55906;52.278;6.808;2023-04-09T07:06:31;102469.47;;;10.24;71.78
68871;BME280;55906;52.278;6.808;2023-04-09T07:08:58;102468.31;;;10.36;71.25
68871;BME280;55906;52.278;6.808;2023-04-09T07:11:26;102464.31;;;10.42;70.60
68871;BME280;55906;52.278;6.808;2023-04-09T07:13:53;102473.59;;;10.52;70.94
68871;BME280;55906;52.278;6.808;2023-04-09T07:16:21;102472.91;;;10.56;70.86
68871;BME280;55906;52.278;6.808;2023-04-09T07:18:47;102480.63;;;10.69;70.70
68871;BME280;55906;52.278;6.808;2023-04-09T07:21:15;102479.66;;;10.85;70.31
68871;BME280;55906;52.278;6.808;2023-04-09T07:23:41;102479.06;;;10.90;69.65
68871;BME280;55906;52.278;6.808;2023-04-09T07:26:08;102478.84;;;11.04;69.20
68871;BME280;55906;52.278;6.808;2023-04-09T07:28:37;102481.44;;;11.20;69.43
68871;BME280;55906;52.278;6.808;2023-04-09T07:31:03;102481.28;;;11.35;68.70
68871;BME280;55906;52.278;6.808;2023-04-09T07:33:30;102478.94;;;11.41;68.31
68871;BME280;55906;52.278;6.808;2023-04-09T07:35:56;102474.31;;;11.54;68.16
68871;BME280;55906;52.278;6.808;2023-04-09T07:38:23;102478.22;;;11.63;67.79
68871;BME280;55906;52.278;6.808;2023-04-09T07:40:50;102474.53;;;11.77;67.90
68871;BME280;55906;52.278;6.808;2023-04-09T07:43:16;102475.06;;;11.88;67.61
68871;BME280;55906;52.278;6.808;2023-04-09T07:45:47;102474.66;;;11.98;66.37
68871;BME280;55906;52.278;6.808;2023-04-09T07:48:15;102476.13;;;12.10;66.68
68871;BME280;55906;52.278;6.808;2023-04-09T07:50:42;102472.44;;;12.26;65.97
68871;BME280;55906;52.278;6.808;2023-04-09T07:53:09;102480.25;;;12.44;65.94
68871;BME280;55906;52.278;6.808;2023-04-09T07:55:36;102474.56;;;12.54;65.99
68871;BME280;55906;52.278;6.808;2023-04-09T07:58:02;102475.91;;;12.65;65.36
68871;BME280;55906;52.278;6.808;2023-04-09T08:00:30;102482.81;;;12.82;64.78
68871;BME280;55906;52.278;6.808;2023-04-09T08:02:58;102486.00;;;12.95;63.54
68871;BME280;55906;52.278;6.808;2023-04-09T08:05:24;102481.38;;;13.10;64.24
68871;BME280;55906;52.278;6.808;2023-04-09T08:07:51;102480.81;;;13.17;63.78
68871;BME280;55906;52.278;6.808;2023-04-09T08:10:18;102480.19;;;13.23;63.14
68871;BME280;55906;52.278;6.808;2023-04-09T08:12:46;102475.75;;;13.44;63.20
68871;BME280;55906;52.278;6.808;2023-04-09T08:15:13;102475.34;;;13.56;62.34
68871;BME280;55906;52.278;6.808;2023-04-09T08:17:40;102479.47;;;13.71;62.00
68871;BME280;55906;52.278;6.808;2023-04-09T08:20:09;102473.56;;;14.01;60.14
68871;BME280;55906;52.278;6.808;2023-04-09T08:22:36;102474.31;;;14.43;61.40
68871;BME280;55906;52.278;6.808;2023-04-09T08:25:06;102476.53;;;14.82;61.27
68871;BME280;55906;52.278;6.808;2023-04-09T08:27:32;102470.97;;;15.26;61.30
68871;BME280;55906;52.278;6.808;2023-04-09T08:30:00;102470.63;;;15.70;60.39
68871;BME280;55906;52.278;6.808;2023-04-09T08:32:28;102465.75;;;16.13;59.49
68871;BME280;55906;52.278;6.808;2023-04-09T08:34:54;102466.81;;;16.51;55.52
68871;BME280;55906;52.278;6.808;2023-04-09T08:37:23;102466.69;;;16.78;55.38
68871;BME280;55906;52.278;6.808;2023-04-09T08:39:50;102459.94;;;17.25;57.90
68871;BME280;55906;52.278;6.808;2023-04-09T08:42:17;102462.13;;;17.81;57.27
68871;BME280;55906;52.278;6.808;2023-04-09T08:44:45;102468.41;;;18.25;56.36
68871;BME280;55906;52.278;6.808;2023-04-09T08:47:12;102462.28;;;18.74;55.61
68871;BME280;55906;52.278;6.808;2023-04-09T08:49:40;102459.84;;;18.88;51.78
68871;BME280;55906;52.278;6.808;2023-04-09T08:52:06;102469.34;;;19.24;45.78
68871;BME280;55906;52.278;6.808;2023-04-09T08:54:35;102460.56;;;19.32;44.00
68871;BME280;55906;52.278;6.808;2023-04-09T08:57:04;102452.28;;;19.70;44.52
68871;BME280;55906;52.278;6.808;2023-04-09T08:59:30;102450.53;;;19.72;42.36
68871;BME280;55906;52.278;6.808;2023-04-09T09:02:07;102458.16;;;20.11;43.01
68871;BME280;55906;52.278;6.808;2023-04-09T09:04:45;102455.22;;;19.90;39.21
68871;BME280;55906;52.278;6.808;2023-04-09T09:07:12;102457.34;;;20.17;41.08
68871;BME280;55906;52.278;6.808;2023-04-09T09:09:54;102454.25;;;20.56;39.52
68871;BME280;55906;52.278;6.808;2023-04-09T09:12:30;102446.59;;;20.92;40.10
68871;BME280;55906;52.278;6.808;2023-04-09T09:14:57;102459.03;;;20.87;39.97
68871;BME280;55906;52.278;6.808;2023-04-09T09:17:24;102453.91;;;21.15;39.91
68871;BME280;55906;52.278;6.808;2023-04-09T09:19:50;102459.16;;;21.02;38.34
68871;BME280;55906;52.278;6.808;2023-04-09T09:22:17;102455.88;;;21.35;37.59
68871;BME280;55906;52.278;6.808;2023-04-09T09:24:47;102455.03;;;21.39;36.33
68871;BME280;55906;52.278;6.808;2023-04-09T09:27:33;102452.53;;;21.68;35.95
68871;BME280;55906;52.278;6.808;2023-04-09T09:30:04;102456.78;;;21.34;36.01
68871;BME280;55906;52.278;6.808;2023-04-09T09:32:32;102448.72;;;21.33;35.28
68871;BME280;55906;52.278;6.808;2023-04-09T09:35:02;102443.63;;;21.79;36.72
68871;BME280;55906;52.278;6.808;2023-04-09T09:37:30;102439.94;;;21.55;34.63
68871;BME280;55906;52.278;6.808;2023-04-09T09:39:57;102437.34;;;21.67;35.60
68871;BME280;55906;52.278;6.808;2023-04-09T09:42:24;102433.84;;;21.85;36.08
68871;BME280;55906;52.278;6.808;2023-04-09T09:45:16;102425.97;;;22.14;34.32
68871;BME280;55906;52.278;6.808;2023-04-09T09:47:44;102430.22;;;21.77;32.79
68871;BME280;55906;52.278;6.808;2023-04-09T09:50:11;102427.53;;;21.76;31.87
68871;BME280;55906;52.278;6.808;2023-04-09T09:52:38;102429.06;;;21.28;32.17
68871;BME280;55906;52.278;6.808;2023-04-09T09:55:07;102423.72;;;21.31;32.48
68871;BME280;55906;52.278;6.808;2023-04-09T09:57:37;102432.38;;;20.98;32.37
68871;BME280;55906;52.278;6.808;2023-04-09T10:00:06;102427.56;;;20.62;32.17
68871;BME280;55906;52.278;6.808;2023-04-09T10:02:42;102423.91;;;20.54;33.27
68871;BME280;55906;52.278;6.808;2023-04-09T10:05:10;102426.13;;;20.97;32.92
68871;BME280;55906;52.278;6.808;2023-04-09T10:07:37;102426.28;;;21.20;32.49
68871;BME280;55906;52.278;6.808;2023-04-09T10:10:04;102423.56;;;21.13;32.52
68871;BME280;55906;52.278;6.808;2023-04-09T10:12:33;102419.81;;;20.91;32.40
68871;BME280;55906;52.278;6.808;2023-04-09T10:15:00;102423.47;;;20.16;33.42
68871;BME280;55906;52.278;6.808;2023-04-09T10:17:29;102422.91;;;19.70;33.77
68871;BME280;55906;52.278;6.808;2023-04-09T10:20:04;102417.28;;;19.52;33.56
68871;BME280;55906;52.278;6.808;2023-04-09T10:22:33;102414.69;;;20.27;33.84
68871;BME280;55906;52.278;6.808;2023-04-09T10:25:01;102408.25;;;20.95;31.77
68871;BME280;55906;52.278;6.808;2023-04-09T10:27:28;102408.25;;;20.95;30.45
68871;BME280;55906;52.278;6.808;2023-04-09T10:29:55;102403.63;;;20.78;30.48
68871;BME280;55906;52.278;6.808;2023-04-09T10:32:22;102400.34;;;21.08;31.14
68871;BME280;55906;52.278;6.808;2023-04-09T10:34:56;102394.38;;;21.48;30.90
68871;BME280;55906;52.278;6.808;2023-04-09T10:37:26;102396.19;;;21.55;30.44
68871;BME280;55906;52.278;6.808;2023-04-09T10:39:53;102390.19;;;22.09;30.43
68871;BME280;55906;52.278;6.808;2023-04-09T10:42:22;102385.81;;;22.39;30.50
68871;BME280;55906;52.278;6.808;2023-04-09T10:45:03;102385.84;;;22.77;28.85
68871;BME280;55906;52.278;6.808;2023-04-09T10:47:31;102384.06;;;22.95;29.67
68871;BME280;55906;52.278;6.808;2023-04-09T10:50:13;102383.13;;;22.42;27.71
68871;BME280;55906;52.278;6.808;2023-04-09T10:52:41;102376.00;;;22.74;29.14
68871;BME280;55906;52.278;6.808;2023-04-09T10:55:08;102370.56;;;23.43;28.38
68871;BME280;55906;52.278;6.808;2023-04-09T10:57:35;102373.22;;;23.59;28.22
68871;BME280;55906;52.278;6.808;2023-04-09T11:00:02;102379.44;;;23.77;27.74
68871;BME280;55906;52.278;6.808;2023-04-09T11:05:35;102364.91;;;24.08;26.22
68871;BME280;55906;52.278;6.808;2023-04-09T11:08:06;102366.72;;;24.09;26.41
68871;BME280;55906;52.278;6.808;2023-04-09T11:10:34;102357.63;;;24.30;25.81
68871;BME280;55906;52.278;6.808;2023-04-09T11:13:01;102348.50;;;24.51;26.79
68871;BME280;55906;52.278;6.808;2023-04-09T11:15:28;102354.63;;;24.73;25.06
68871;BME280;55906;52.278;6.808;2023-04-09T11:17:55;102339.59;;;24.44;24.16
68871;BME280;55906;52.278;6.808;2023-04-09T11:20:23;102346.78;;;24.44;25.21
68871;BME280;55906;52.278;6.808;2023-04-09T11:22:52;102345.88;;;24.45;25.41
68871;BME280;55906;52.278;6.808;2023-04-09T11:25:23;102335.91;;;24.54;23.82
68871;BME280;55906;52.278;6.808;2023-04-09T11:27:51;102340.59;;;24.23;24.62
68871;BME280;55906;52.278;6.808;2023-04-09T11:30:17;102334.03;;;24.64;24.79
68871;BME280;55906;52.278;6.808;2023-04-09T11:32:44;102331.31;;;24.69;23.74
68871;BME280;55906;52.278;6.808;2023-04-09T11:35:12;102334.84;;;24.77;25.01
68871;BME280;55906;52.278;6.808;2023-04-09T11:37:40;102334.69;;;24.94;25.09
68871;BME280;55906;52.278;6.808;2023-04-09T11:40:13;102345.97;;;25.32;24.71
68871;BME280;55906;52.278;6.808;2023-04-09T11:42:43;102331.97;;;25.76;24.49
68871;BME280;55906;52.278;6.808;2023-04-09T11:45:10;102339.91;;;25.87;23.73
68871;BME280;55906;52.278;6.808;2023-04-09T11:47:39;102334.63;;;25.78;23.07
68871;BME280;55906;52.278;6.808;2023-04-09T11:50:08;102334.41;;;25.21;22.89
68871;BME280;55906;52.278;6.808;2023-04-09T11:52:35;102337.28;;;25.06;24.02
68871;BME280;55906;52.278;6.808;2023-04-09T11:55:02;102331.34;;;25.51;24.35
68871;BME280;55906;52.278;6.808;2023-04-09T11:57:43;102332.06;;;26.33;24.08
68871;BME280;55906;52.278;6.808;2023-04-09T12:00:11;102337.38;;;26.39;23.18
68871;BME280;55906;52.278;6.808;2023-04-09T12:02:40;102327.03;;;26.07;23.12
68871;BME280;55906;52.278;6.808;2023-04-09T12:05:11;102327.72;;;26.22;23.60
68871;BME280;55906;52.278;6.808;2023-04-09T12:07:38;102325.88;;;26.25;23.79
68871;BME280;55906;52.278;6.808;2023-04-09T12:10:06;102336.50;;;26.88;23.59
68871;BME280;55906;52.278;6.808;2023-04-09T12:12:41;102323.16;;;26.81;22.72
68871;BME280;55906;52.278;6.808;2023-04-09T12:15:18;102320.59;;;26.18;22.78
68871;BME280;55906;52.278;6.808;2023-04-09T12:17:48;102312.47;;;26.19;23.46
68871;BME280;55906;52.278;6.808;2023-04-09T12:20:33;102308.34;;;25.23;24.33
68871;BME280;55906;52.278;6.808;2023-04-09T12:23:02;102303.88;;;25.22;25.04
68871;BME280;55906;52.278;6.808;2023-04-09T12:25:29;102314.84;;;25.05;25.50
68871;BME280;55906;52.278;6.808;2023-04-09T12:27:57;102313.94;;;25.05;25.70
68871;BME280;55906;52.278;6.808;2023-04-09T12:30:25;102319.56;;;24.79;26.08
68871;BME280;55906;52.278;6.808;2023-04-09T12:32:53;102326.22;;;24.35;25.38
68871;BME280;55906;52.278;6.808;2023-04-09T12:35:20;102324.50;;;24.20;26.14
68871;BME280;55906;52.278;6.808;2023-04-09T12:37:47;102316.53;;;24.05;25.95
68871;BME280;55906;52.278;6.808;2023-04-09T12:40:14;102312.88;;;24.17;26.27
68871;BME280;55906;52.278;6.808;2023-04-09T12:42:40;102308.72;;;24.86;26.11
68871;BME280;55906;52.278;6.808;2023-04-09T12:45:08;102313.28;;;25.60;24.79
68871;BME280;55906;52.278;6.808;2023-04-09T12:47:37;102315.84;;;25.72;24.61
68871;BME280;55906;52.278;6.808;2023-04-09T12:50:06;102315.88;;;26.32;24.23
68871;BME280;55906;52.278;6.808;2023-04-09T12:52:33;102310.66;;;26.75;23.33
68871;BME280;55906;52.278;6.808;2023-04-09T12:55:00;102307.75;;;26.35;23.91
68871;BME280;55906;52.278;6.808;2023-04-09T12:57:27;102305.06;;;26.32;23.63
68871;BME280;55906;52.278;6.808;2023-04-09T12:59:54;102299.16;;;26.64;23.93